Time;durP1;ratioP1;P1;durP2;ratioP2;P2;SDS_P1;SDS_P2;PMS_P1;PMS_P2;Temp;Humidity;BMP_temperature;BMP_pressure;BME280_temperature;BME280_humidity;BME280_pressure;Samples;Min_cycle;Max_cycle;Signal;HPM_P1;HPM_P2
2022/03/23 00:02:05;;;;;;;38.45;28.23;;;7.80;99.90;;;;;;5011811;28;20091;-73
2022/03/23 00:04:31;;;;;;;39.30;26.75;;;7.80;99.90;;;;;;5058963;28;20448;-73
2022/03/23 00:06:58;;;;;;;40.45;26.73;;;7.70;99.90;;;;;;5040746;28;20052;-74
2022/03/23 00:09:26;;;;;;;37.25;26.70;;;7.70;99.90;;;;;;5055880;28;20050;-73
2022/03/23 00:11:58;;;;;;;40.58;26.65;;;7.70;99.90;;;;;;5044952;28;20408;-74
2022/03/23 00:14:24;;;;;;;39.95;26.60;;;7.70;99.90;;;;;;5064342;28;20044;-73
2022/03/23 00:16:49;;;;;;;34.45;25.45;;;7.70;99.90;;;;;;5054329;28;20050;-74
2022/03/23 00:19:17;;;;;;;31.70;25.00;;;7.60;99.90;;;;;;5052079;28;20900;-74
2022/03/23 00:21:43;;;;;;;33.88;24.52;;;7.60;99.90;;;;;;5054547;28;20044;-73
2022/03/23 00:24:08;;;;;;;34.50;22.98;;;7.60;99.90;;;;;;5065587;28;20039;-73
2022/03/23 00:26:35;;;;;;;35.00;25.05;;;7.50;99.90;;;;;;5069635;28;20040;-72
2022/03/23 00:29:00;;;;;;;34.70;25.20;;;7.50;99.90;;;;;;5053146;28;20044;-73
2022/03/23 00:31:26;;;;;;;33.85;23.70;;;7.50;99.90;;;;;;5034363;28;20053;-73
2022/03/23 00:33:54;;;;;;;36.10;24.38;;;7.40;99.90;;;;;;5057331;28;20123;-73
2022/03/23 00:36:20;;;;;;;39.83;25.20;;;7.30;99.90;;;;;;5053380;28;20036;-73
2022/03/23 00:38:47;;;;;;;34.70;26.20;;;7.20;99.90;;;;;;5054729;28;20041;-73
2022/03/23 00:41:16;;;;;;;36.28;25.77;;;7.20;99.90;;;;;;5049230;28;20079;-73
2022/03/23 00:43:56;;;;;;;39.55;26.75;;;7.10;99.90;;;;;;5017551;28;20496;-73
2022/03/23 00:46:24;;;;;;;41.28;28.58;;;7.10;99.90;;;;;;5054084;28;20075;-73
2022/03/23 00:48:53;;;;;;;35.95;26.02;;;7.00;99.90;;;;;;5055661;28;20124;-73
2022/03/23 00:51:22;;;;;;;;;;;7.00;99.90;;;;;;5057744;28;20072;-74
2022/03/23 00:53:48;;;;;;;35.70;27.20;;;7.00;99.90;;;;;;5049839;28;19967;-73
2022/03/23 00:56:13;;;;;;;41.47;26.63;;;7.00;99.90;;;;;;5035324;28;20127;-74
2022/03/23 00:58:39;;;;;;;33.03;24.45;;;7.00;99.90;;;;;;5058661;28;20040;-73
2022/03/23 01:01:07;;;;;;;33.65;24.00;;;6.90;99.90;;;;;;5050091;28;20041;-74
2022/03/23 01:03:58;;;;;;;37.65;26.42;;;6.90;99.90;;;;;;5030484;28;20038;-73
2022/03/23 01:06:28;;;;;;;36.63;25.98;;;6.80;99.90;;;;;;5071561;28;20048;-74
2022/03/23 01:08:54;;;;;;;37.88;25.33;;;6.80;99.90;;;;;;5057725;28;20549;-73
2022/03/23 01:11:20;;;;;;;43.00;25.80;;;6.80;99.90;;;;;;5054051;28;20086;-73
2022/03/23 01:13:48;;;;;;;36.30;26.20;;;6.80;99.90;;;;;;5079269;28;20071;-73
2022/03/23 01:16:17;;;;;;;35.70;24.83;;;6.80;99.90;;;;;;5031776;28;20111;-74
2022/03/23 01:18:43;;;;;;;36.00;25.75;;;6.70;99.90;;;;;;5043348;28;20058;-74
2022/03/23 01:21:12;;;;;;;39.67;28.27;;;6.70;99.90;;;;;;5057073;28;20052;-74
2022/03/23 01:23:53;;;;;;;33.67;24.17;;;6.70;99.90;;;;;;5058136;28;20052;-72
2022/03/23 01:26:19;;;;;;;35.00;23.73;;;6.70;99.90;;;;;;5058762;28;20153;-74
2022/03/23 01:28:44;;;;;;;37.50;27.35;;;6.70;99.90;;;;;;5047990;28;20068;-73
2022/03/23 01:31:18;;;;;;;35.17;25.13;;;6.70;99.90;;;;;;5060950;28;20047;-73
2022/03/23 01:34:10;;;;;;;37.95;25.85;;;6.70;99.90;;;;;;5056820;28;20045;-74
2022/03/23 01:36:36;;;;;;;32.95;24.00;;;6.60;99.90;;;;;;5039897;28;20048;-72
2022/03/23 01:39:02;;;;;;;33.33;25.00;;;6.60;99.90;;;;;;5052911;28;20089;-73
2022/03/23 01:41:28;;;;;;;37.17;25.48;;;6.50;99.90;;;;;;5043963;28;20599;-73
2022/03/23 01:43:53;;;;;;;37.38;27.70;;;6.50;99.90;;;;;;5062847;28;20045;-73
2022/03/23 01:46:20;;;;;;;43.83;28.77;;;6.50;99.90;;;;;;5057556;28;20044;-74
2022/03/23 01:48:46;;;;;;;36.08;25.05;;;6.50;99.90;;;;;;5052854;28;20046;-73
2022/03/23 01:51:14;;;;;;;43.47;28.17;;;6.50;99.90;;;;;;5051747;28;20033;-73
2022/03/23 01:53:40;;;;;;;45.15;28.27;;;6.40;99.90;;;;;;5039383;28;20106;-74
2022/03/23 01:56:09;;;;;;;26.85;18.77;;;6.40;99.90;;;;;;5056967;28;20045;-72
2022/03/23 01:58:36;;;;;;;32.65;21.75;;;6.40;99.90;;;;;;5053387;28;20119;-74
2022/03/23 02:01:02;;;;;;;30.02;22.10;;;6.30;99.90;;;;;;5056294;28;20043;-74
2022/03/23 02:03:35;;;;;;;24.50;16.60;;;6.30;99.90;;;;;;5060347;28;20036;-73
2022/03/23 02:06:06;;;;;;;25.77;16.83;;;6.20;99.90;;;;;;5040460;28;20094;-72
2022/03/23 02:08:55;;;;;;;22.38;16.35;;;6.10;99.90;;;;;;5044717;28;20075;-73
2022/03/23 02:11:26;;;;;;;31.38;22.27;;;6.10;99.90;;;;;;5056467;28;20063;-73
2022/03/23 02:13:53;;;;;;;24.80;17.48;;;6.00;99.90;;;;;;5071437;28;20044;-74
2022/03/23 02:16:20;;;;;;;24.77;19.02;;;6.00;99.90;;;;;;5054974;28;20067;-73
2022/03/23 02:18:46;;;;;;;36.15;23.85;;;6.00;99.90;;;;;;5054400;28;20048;-73
2022/03/23 02:21:15;;;;;;;33.70;24.27;;;5.90;99.90;;;;;;5043356;28;20072;-73
2022/03/23 02:23:41;;;;;;;27.85;22.45;;;5.90;99.90;;;;;;5057374;28;20068;-73
2022/03/23 02:26:08;;;;;;;36.78;23.50;;;5.90;99.90;;;;;;5055194;28;20113;-73
2022/03/23 02:28:36;;;;;;;38.88;25.73;;;5.80;99.90;;;;;;5036204;28;20044;-72
2022/03/23 02:31:02;;;;;;;37.65;26.80;;;5.80;99.90;;;;;;5041148;28;20048;-73
2022/03/23 02:33:28;;;;;;;42.28;27.67;;;5.80;99.90;;;;;;5064521;28;20045;-73
2022/03/23 02:35:54;;;;;;;38.63;27.02;;;5.80;99.90;;;;;;5076366;28;20048;-73
2022/03/23 02:38:48;;;;;;;46.50;32.70;;;5.80;99.90;;;;;;5056485;28;20036;-73
2022/03/23 02:41:14;;;;;;;46.00;30.58;;;5.80;99.90;;;;;;5056680;28;20485;-73
2022/03/23 02:43:42;;;;;;;48.75;32.15;;;5.80;99.90;;;;;;5054694;28;20059;-73
2022/03/23 02:46:35;;;;;;;30.42;21.67;;;5.80;99.90;;;;;;5030535;28;20080;-73
2022/03/23 02:49:06;;;;;;;;;;;5.80;99.90;;;;;;5033141;28;20040;-74
2022/03/23 02:51:35;;;;;;;32.20;21.95;;;5.70;99.90;;;;;;5074569;28;19916;-73
2022/03/23 03:02:41;;;;;;;34.97;24.83;;;5.60;99.90;;;;;;5053740;28;20079;-74
2022/03/23 03:05:09;;;;;;;38.35;25.65;;;5.60;99.90;;;;;;5057611;28;20059;-72
2022/03/23 03:10:30;;;;;;;36.95;26.65;;;5.50;99.90;;;;;;5060810;28;20416;-73
2022/03/23 03:12:56;;;;;;;35.28;25.25;;;5.50;99.90;;;;;;5050949;28;20044;-72
2022/03/23 03:15:22;;;;;;;44.97;28.95;;;5.50;99.90;;;;;;5057274;28;20047;-73
2022/03/23 03:17:48;;;;;;;37.88;26.83;;;5.50;99.90;;;;;;5070619;28;20041;-73
2022/03/23 03:20:14;;;;;;;37.17;26.58;;;5.50;99.90;;;;;;5055514;28;20056;-73
2022/03/23 03:22:41;;;;;;;39.17;26.77;;;5.50;99.90;;;;;;5069770;28;20123;-73
2022/03/23 03:25:15;;;;;;;42.85;29.33;;;5.40;99.90;;;;;;5054608;28;20057;-72
2022/03/23 03:27:41;;;;;;;41.75;29.00;;;5.40;99.90;;;;;;5054392;28;20041;-72
2022/03/23 03:30:09;;;;;;;46.22;30.70;;;5.50;99.90;;;;;;5055277;28;20036;-72
2022/03/23 03:32:36;;;;;;;37.63;26.33;;;5.40;99.90;;;;;;5043136;28;20040;-72
2022/03/23 03:35:15;;;;;;;45.03;28.00;;;5.40;99.90;;;;;;5059229;28;20058;-73
2022/03/23 03:37:42;;;;;;;35.88;26.38;;;5.40;99.90;;;;;;5062937;28;20032;-73
2022/03/23 03:40:29;;;;;;;34.78;25.38;;;5.30;99.90;;;;;;5050382;28;20043;-73
2022/03/23 03:43:01;;;;;;;38.30;24.98;;;5.30;99.90;;;;;;5038284;28;20123;-73
2022/03/23 03:45:27;;;;;;;27.95;21.67;;;5.30;99.90;;;;;;5056619;28;20464;-73
2022/03/23 03:47:52;;;;;;;29.33;18.10;;;5.20;99.90;;;;;;5056101;28;20547;-73
2022/03/23 03:50:18;;;;;;;26.30;20.35;;;5.20;99.90;;;;;;5048373;28;20036;-73
2022/03/23 03:52:44;;;;;;;35.08;24.95;;;5.10;99.90;;;;;;5054954;28;20039;-73
2022/03/23 03:55:09;;;;;;;37.33;23.70;;;5.10;99.90;;;;;;5053097;28;20066;-73
2022/03/23 03:57:35;;;;;;;42.13;23.85;;;5.10;99.90;;;;;;5056917;28;20085;-73
2022/03/23 04:00:00;;;;;;;41.08;28.23;;;5.00;99.90;;;;;;5055092;28;20055;-72
2022/03/23 04:02:26;;;;;;;38.47;26.77;;;5.00;99.90;;;;;;5054547;28;20105;-73
2022/03/23 04:04:52;;;;;;;39.55;27.90;;;5.00;99.90;;;;;;5056772;28;20558;-73
2022/03/23 04:07:17;;;;;;;41.22;27.35;;;5.00;99.90;;;;;;5077796;28;20032;-73
2022/03/23 04:09:43;;;;;;;38.72;27.13;;;5.00;99.90;;;;;;5054918;28;20044;-73
2022/03/23 04:12:09;;;;;;;34.38;24.50;;;4.90;99.90;;;;;;5037264;28;20519;-73
2022/03/23 04:14:35;;;;;;;36.03;23.83;;;5.00;99.90;;;;;;5052855;28;20043;-72
2022/03/23 04:17:04;;;;;;;33.25;21.55;;;4.90;99.90;;;;;;5078227;28;20039;-73
2022/03/23 04:19:30;;;;;;;30.27;20.58;;;4.90;99.90;;;;;;5050003;28;20113;-72
2022/03/23 04:21:55;;;;;;;33.63;24.00;;;4.80;99.90;;;;;;5050174;28;20541;-73
2022/03/23 04:24:21;;;;;;;37.83;25.98;;;4.80;99.90;;;;;;5053963;28;20451;-73
2022/03/23 04:26:47;;;;;;;43.72;29.25;;;4.80;99.90;;;;;;5052426;28;20126;-72
2022/03/23 04:29:14;;;;;;;40.45;28.10;;;4.80;99.90;;;;;;5051258;28;20048;-73
2022/03/23 04:31:39;;;;;;;34.55;24.23;;;4.80;99.90;;;;;;5068728;28;20043;-73
2022/03/23 04:34:05;;;;;;;40.25;26.58;;;4.80;99.90;;;;;;5049194;28;20492;-73
2022/03/23 04:36:31;;;;;;;39.15;26.92;;;4.80;99.90;;;;;;5068961;28;20041;-73
2022/03/23 04:39:02;;;;;;;38.13;24.92;;;4.70;99.90;;;;;;5038732;28;20040;-73
2022/03/23 04:41:36;;;;;;;44.92;29.55;;;4.70;99.90;;;;;;5045497;28;20037;-72
2022/03/23 04:44:40;;;;;;;41.65;27.25;;;4.70;99.90;;;;;;5066116;28;20112;-74
2022/03/23 04:47:06;;;;;;;28.05;18.42;;;4.70;99.90;;;;;;5052486;28;20048;-73
2022/03/23 04:49:32;;;;;;;29.00;17.67;;;4.70;99.90;;;;;;5054657;28;20036;-73
2022/03/23 04:51:58;;;;;;;32.10;21.23;;;4.60;99.90;;;;;;5071559;28;20385;-73
2022/03/23 04:54:25;;;;;;;33.45;23.02;;;4.50;99.90;;;;;;5040681;28;20127;-71
2022/03/23 04:56:50;;;;;;;32.80;23.30;;;4.60;99.90;;;;;;5058436;28;20044;-74
2022/03/23 04:59:17;;;;;;;34.35;23.48;;;4.60;99.90;;;;;;5054247;28;20570;-72
2022/03/23 05:01:43;;;;;;;36.33;24.15;;;4.60;99.90;;;;;;5054024;28;20081;-73
2022/03/23 05:04:09;;;;;;;32.55;24.25;;;4.60;99.90;;;;;;5057559;28;20043;-74
2022/03/23 05:06:34;;;;;;;35.15;24.45;;;4.60;99.90;;;;;;5052036;28;20650;-73
2022/03/23 05:09:00;;;;;;;36.83;24.45;;;4.60;99.90;;;;;;5049933;28;20044;-73
2022/03/23 05:11:26;;;;;;;29.33;21.05;;;4.60;99.90;;;;;;5048983;28;20488;-73
2022/03/23 05:13:51;;;;;;;23.30;18.13;;;4.60;99.90;;;;;;5038065;28;20075;-73
2022/03/23 05:16:20;;;;;;;25.70;18.23;;;4.60;99.90;;;;;;5051661;28;20036;-73
2022/03/23 05:18:46;;;;;;;20.00;14.30;;;4.60;99.90;;;;;;5038588;28;20048;-72
2022/03/23 05:21:12;;;;;;;15.82;12.57;;;4.60;99.90;;;;;;5052831;28;20048;-73
2022/03/23 05:23:40;;;;;;;16.40;13.52;;;4.50;99.90;;;;;;5037844;28;20071;-73
2022/03/23 05:26:06;;;;;;;25.23;17.75;;;4.60;99.90;;;;;;5049988;28;20044;-73
2022/03/23 05:28:32;;;;;;;32.22;22.13;;;4.60;99.90;;;;;;5052437;28;20048;-73
2022/03/23 05:30:57;;;;;;;38.08;22.70;;;4.60;99.90;;;;;;5060177;28;20512;-74
2022/03/23 05:33:23;;;;;;;31.77;22.95;;;4.60;99.90;;;;;;5054444;28;20432;-73
2022/03/23 05:35:49;;;;;;;32.95;23.70;;;4.60;99.90;;;;;;5056855;28;20408;-73
2022/03/23 05:38:15;;;;;;;33.78;23.60;;;4.60;99.90;;;;;;5052746;28;20401;-73
2022/03/23 05:40:41;;;;;;;28.88;21.58;;;4.60;99.90;;;;;;5058433;28;20609;-73
2022/03/23 05:43:09;;;;;;;31.63;23.85;;;4.60;99.90;;;;;;5044696;28;20044;-73
2022/03/23 05:45:55;;;;;;;29.55;19.52;;;4.50;99.90;;;;;;5031023;28;20043;-73
2022/03/23 05:48:20;;;;;;;22.60;17.67;;;4.50;99.90;;;;;;5060569;28;20033;-73
2022/03/23 05:50:46;;;;;;;27.85;18.60;;;4.40;99.90;;;;;;5057971;28;20033;-73
2022/03/23 05:53:12;;;;;;;26.73;19.17;;;4.40;99.90;;;;;;5054876;28;20413;-73
2022/03/23 05:55:37;;;;;;;35.33;23.00;;;4.30;99.90;;;;;;5057077;28;20408;-73
2022/03/23 05:58:03;;;;;;;23.80;18.42;;;4.30;99.90;;;;;;5055691;28;20193;-73
2022/03/23 06:00:31;;;;;;;21.77;16.05;;;4.30;99.90;;;;;;5051666;28;20032;-73
2022/03/23 06:02:56;;;;;;;19.95;14.85;;;4.30;99.90;;;;;;5057504;28;20129;-73
2022/03/23 06:05:22;;;;;;;24.55;16.95;;;4.30;99.90;;;;;;5059992;28;20068;-74
2022/03/23 06:07:48;;;;;;;32.35;22.17;;;4.20;99.90;;;;;;5077887;28;20145;-73
2022/03/23 06:10:14;;;;;;;32.95;23.27;;;4.30;99.90;;;;;;5052478;28;20039;-73
2022/03/23 06:12:48;;;;;;;34.88;23.38;;;4.30;99.90;;;;;;5060160;28;20052;-74
2022/03/23 06:15:33;;;;;;;29.65;20.65;;;4.40;99.90;;;;;;5076364;28;20037;-73
2022/03/23 06:18:09;;;;;;;25.42;18.65;;;4.40;99.90;;;;;;5055318;28;20067;-72
2022/03/23 06:20:35;;;;;;;30.60;20.95;;;4.40;99.90;;;;;;5060914;28;20425;-73
2022/03/23 06:23:01;;;;;;;33.75;24.67;;;4.40;99.90;;;;;;5058951;28;20068;-73
2022/03/23 06:25:26;;;;;;;32.83;24.67;;;4.50;99.90;;;;;;5057349;28;20044;-74
2022/03/23 06:27:52;;;;;;;39.17;23.52;;;4.50;99.90;;;;;;5055301;28;20053;-73
2022/03/23 06:30:19;;;;;;;43.97;27.40;;;4.50;99.90;;;;;;5053512;28;20037;-72
2022/03/23 06:32:45;;;;;;;53.65;29.90;;;4.60;99.90;;;;;;5047658;28;20032;-73
2022/03/23 06:35:11;;;;;;;48.20;31.98;;;4.60;99.90;;;;;;5045312;28;20043;-73
2022/03/23 06:37:37;;;;;;;48.50;32.92;;;4.70;99.90;;;;;;5074721;28;20049;-71
2022/03/23 06:40:05;;;;;;;54.35;34.28;;;4.70;99.90;;;;;;5058518;28;20048;-73
2022/03/23 06:42:30;;;;;;;50.50;33.00;;;4.80;99.90;;;;;;5055695;28;20044;-73
2022/03/23 06:44:56;;;;;;;46.78;31.13;;;4.90;99.90;;;;;;5025008;28;20049;-72
2022/03/23 06:47:22;;;;;;;50.95;31.63;;;4.90;99.90;;;;;;5050343;28;20036;-72
2022/03/23 06:49:48;;;;;;;51.95;33.30;;;5.00;99.90;;;;;;5060045;28;20055;-73
2022/03/23 06:52:15;;;;;;;52.65;32.80;;;5.10;99.90;;;;;;5054681;28;20036;-73
2022/03/23 06:54:42;;;;;;;51.50;31.77;;;5.10;99.90;;;;;;5040201;28;20032;-73
2022/03/23 06:57:08;;;;;;;50.60;31.27;;;5.20;99.90;;;;;;5057866;28;20040;-73
2022/03/23 06:59:35;;;;;;;48.80;33.78;;;5.30;99.90;;;;;;5054560;28;20045;-72
2022/03/23 07:02:02;;;;;;;55.08;36.05;;;5.40;99.90;;;;;;5042243;28;20105;-73
2022/03/23 07:04:34;;;;;;;50.85;35.75;;;5.40;99.90;;;;;;5043508;28;20067;-73
2022/03/23 07:07:03;;;;;;;49.55;34.40;;;5.50;99.90;;;;;;5056599;28;20047;-72
2022/03/23 07:09:32;;;;;;;60.17;38.55;;;5.60;99.90;;;;;;5054314;28;20067;-72
2022/03/23 07:12:03;;;;;;;59.28;40.25;;;5.70;99.90;;;;;;5047172;28;20068;-73
2022/03/23 07:14:30;;;;;;;53.90;35.83;;;5.80;99.90;;;;;;5050546;28;21932;-74
2022/03/23 07:16:56;;;;;;;57.72;36.17;;;5.90;99.90;;;;;;5066906;28;20135;-73
2022/03/23 07:19:22;;;;;;;57.90;37.67;;;6.00;99.90;;;;;;5051022;28;20086;-73
2022/03/23 07:21:51;;;;;;;66.13;42.05;;;6.10;99.90;;;;;;5050116;28;20072;-73
2022/03/23 07:24:17;;;;;;;65.40;40.28;;;6.20;99.90;;;;;;5053603;28;20040;-74
2022/03/23 07:26:43;;;;;;;72.28;43.30;;;6.40;99.90;;;;;;5050548;28;20047;-72
2022/03/23 07:29:09;;;;;;;61.47;39.85;;;6.50;99.90;;;;;;5067289;28;20036;-73
2022/03/23 07:31:35;;;;;;;57.30;39.58;;;6.60;99.90;;;;;;5050950;28;20190;-73
2022/03/23 07:34:02;;;;;;;58.63;41.53;;;6.70;99.90;;;;;;5046895;28;20036;-72
2022/03/23 07:36:28;;;;;;;58.25;41.20;;;6.90;99.90;;;;;;5051097;28;20036;-73
2022/03/23 07:38:54;;;;;;;61.00;41.25;;;7.00;99.90;;;;;;5071008;28;20040;-73
2022/03/23 07:41:28;;;;;;;64.10;42.85;;;7.20;99.90;;;;;;5055090;28;20055;-72
2022/03/23 07:44:21;;;;;;;59.70;40.65;;;7.30;99.90;;;;;;5048140;28;20044;-73
2022/03/23 07:46:47;;;;;;;52.80;39.45;;;7.50;99.90;;;;;;5071151;28;20033;-72
2022/03/23 07:49:14;;;;;;;49.60;36.03;;;7.70;99.90;;;;;;5059715;28;20500;-74
2022/03/23 07:51:41;;;;;;;50.17;35.15;;;7.80;99.90;;;;;;5019919;28;20500;-73
2022/03/23 07:54:07;;;;;;;49.85;34.70;;;8.00;99.90;;;;;;5048306;28;20039;-72
2022/03/23 07:56:34;;;;;;;49.17;35.67;;;8.20;99.90;;;;;;5052076;28;20052;-73
2022/03/23 07:58:59;;;;;;;47.95;35.05;;;8.30;99.90;;;;;;5051253;28;20048;-73
2022/03/23 08:01:25;;;;;;;47.20;34.35;;;8.50;99.90;;;;;;5055838;28;20041;-72
2022/03/23 08:03:51;;;;;;;43.65;34.25;;;8.70;99.90;;;;;;5055356;28;20124;-73
2022/03/23 08:06:18;;;;;;;44.17;34.35;;;8.80;99.90;;;;;;5007788;28;20056;-73
2022/03/23 08:08:44;;;;;;;42.67;32.58;;;9.00;99.90;;;;;;5067017;28;20393;-73
2022/03/23 08:11:11;;;;;;;47.83;33.13;;;9.10;99.90;;;;;;5050499;28;20044;-73
2022/03/23 08:13:36;;;;;;;42.72;32.25;;;9.20;99.90;;;;;;5055705;28;20093;-73
2022/03/23 08:16:05;;;;;;;39.92;29.45;;;9.40;99.90;;;;;;5053274;28;20036;-73
2022/03/23 08:18:36;;;;;;;;;;;9.50;99.90;;;;;;5061274;28;20045;-75
2022/03/23 08:21:08;;;;;;;;;;;9.70;99.90;;;;;;5044852;28;19942;-72
2022/03/23 08:23:43;;;;;;;34.92;26.70;;;9.90;99.90;;;;;;5064747;28;19916;-73
2022/03/23 08:26:10;;;;;;;37.20;26.50;;;10.10;99.90;;;;;;5048436;28;20112;-73
2022/03/23 08:28:38;;;;;;;30.63;24.30;;;10.30;99.90;;;;;;5042363;28;20120;-73
2022/03/23 08:31:04;;;;;;;28.52;23.60;;;10.50;99.90;;;;;;5051885;28;20086;-73
2022/03/23 08:33:34;;;;;;;33.15;24.48;;;10.70;99.90;;;;;;5054585;28;20052;-73
2022/03/23 08:36:01;;;;;;;29.90;22.92;;;10.90;99.90;;;;;;5036166;28;20044;-74
2022/03/23 08:38:27;;;;;;;26.98;22.52;;;11.10;99.90;;;;;;5051528;28;20046;-74
2022/03/23 08:40:52;;;;;;;26.02;20.83;;;11.40;97.50;;;;;;5052284;28;20036;-74
2022/03/23 08:43:18;;;;;;;30.50;21.33;;;11.60;92.90;;;;;;5051411;28;20055;-73
2022/03/23 08:45:44;;;;;;;30.92;21.60;;;11.80;91.90;;;;;;5050174;28;20048;-73
2022/03/23 08:48:10;;;;;;;26.98;20.33;;;12.00;93.10;;;;;;5069123;28;20512;-73
2022/03/23 08:50:36;;;;;;;27.55;20.85;;;12.20;91.50;;;;;;5050882;28;20036;-73
2022/03/23 08:53:03;;;;;;;27.92;19.90;;;12.30;87.40;;;;;;5050048;28;20040;-73
2022/03/23 08:55:29;;;;;;;25.33;20.67;;;12.40;86.10;;;;;;5051385;28;20115;-74
2022/03/23 08:57:55;;;;;;;27.80;19.75;;;12.60;89.00;;;;;;5052290;28;20086;-74
2022/03/23 09:00:21;;;;;;;25.50;18.65;;;12.70;87.00;;;;;;5052254;28;20041;-74
2022/03/23 09:02:47;;;;;;;23.73;18.27;;;12.80;81.60;;;;;;5050016;28;20043;-74
2022/03/23 09:05:18;;;;;;;24.38;17.83;;;13.00;72.60;;;;;;5061855;28;20076;-73
2022/03/23 09:07:44;;;;;;;24.27;18.60;;;13.20;70.60;;;;;;5042768;28;20087;-73
2022/03/23 09:10:13;;;;;;;26.98;19.60;;;13.40;69.90;;;;;;5049733;28;20509;-72
2022/03/23 09:12:39;;;;;;;22.75;17.48;;;13.50;70.30;;;;;;5043188;28;20037;-73
2022/03/23 09:15:07;;;;;;;23.50;17.52;;;13.60;67.20;;;;;;5053936;28;20040;-73
2022/03/23 09:17:32;;;;;;;28.48;18.02;;;13.80;65.50;;;;;;5054663;28;20040;-73
2022/03/23 09:20:00;;;;;;;17.75;15.38;;;13.90;65.00;;;;;;5047657;28;20124;-73
2022/03/23 09:22:27;;;;;;;21.73;15.57;;;14.00;58.90;;;;;;5038140;28;20090;-73
2022/03/23 09:24:53;;;;;;;18.50;15.02;;;14.10;57.30;;;;;;5055298;28;20033;-73
2022/03/23 09:27:19;;;;;;;19.98;15.98;;;14.20;54.80;;;;;;5054029;28;20097;-73
2022/03/23 09:29:45;;;;;;;24.98;16.42;;;14.30;55.00;;;;;;5073943;28;20085;-74
2022/03/23 09:32:12;;;;;;;18.90;15.75;;;14.50;55.60;;;;;;5055408;28;20152;-75
2022/03/23 09:34:39;;;;;;;19.17;16.52;;;14.60;53.40;;;;;;5037273;28;20033;-73
2022/03/23 09:39:51;;;;;;;27.23;15.45;;;14.80;52.10;;;;;;5053788;28;20048;-73
2022/03/23 09:42:20;;;;;;;17.58;15.38;;;15.00;50.30;;;;;;5056284;28;20040;-73
2022/03/23 09:44:47;;;;;;;18.15;15.02;;;15.10;50.20;;;;;;5072400;28;20032;-74
2022/03/23 09:47:13;;;;;;;19.33;15.13;;;15.20;49.10;;;;;;5077421;28;20043;-73
2022/03/23 09:49:39;;;;;;;18.98;15.73;;;15.30;47.90;;;;;;5055314;28;20044;-74
2022/03/23 09:52:05;;;;;;;17.45;15.52;;;15.50;48.70;;;;;;5053802;28;20072;-73
2022/03/23 09:54:31;;;;;;;19.02;16.35;;;15.60;48.10;;;;;;5054671;28;20090;-73
2022/03/23 09:56:57;;;;;;;16.20;14.52;;;15.70;49.90;;;;;;5055115;28;20509;-73
2022/03/23 09:59:23;;;;;;;17.45;15.55;;;15.80;48.00;;;;;;5028519;28;20075;-74
2022/03/23 10:01:51;;;;;;;22.95;16.10;;;15.90;49.10;;;;;;5055576;28;20076;-74
2022/03/23 10:04:17;;;;;;;18.08;15.30;;;16.00;49.00;;;;;;5054655;28;20566;-74
2022/03/23 10:07:01;;;;;;;19.30;15.90;;;16.20;49.10;;;;;;5053387;28;20037;-74
2022/03/23 10:10:01;;;;;;;19.38;15.50;;;16.30;49.40;;;;;;5054126;28;20056;-74
2022/03/23 10:13:04;;;;;;;21.88;15.02;;;16.50;48.50;;;;;;5053598;28;20037;-74
2022/03/23 10:16:00;;;;;;;18.02;16.13;;;16.60;47.60;;;;;;5049372;28;20040;-73
2022/03/23 10:18:49;;;;;;;19.13;15.30;;;16.80;47.10;;;;;;5021955;28;20120;-73
2022/03/23 10:21:16;;;;;;;22.23;15.35;;;16.90;47.00;;;;;;5054372;28;20047;-73
2022/03/23 10:24:00;;;;;;;20.50;14.60;;;17.00;45.90;;;;;;5052507;28;20052;-74
2022/03/23 10:26:27;;;;;;;19.75;14.82;;;17.10;43.00;;;;;;5070408;28;20056;-74
2022/03/23 10:28:53;;;;;;;19.27;14.90;;;17.20;43.70;;;;;;5053001;28;20036;-74
2022/03/23 10:31:21;;;;;;;18.40;15.10;;;17.30;44.40;;;;;;5050638;28;20036;-74
2022/03/23 10:34:10;;;;;;;15.73;13.68;;;17.30;44.60;;;;;;5054290;28;20388;-74
2022/03/23 10:36:43;;;;;;;18.15;13.23;;;17.40;45.30;;;;;;5066299;28;20032;-74
2022/03/23 10:39:26;;;;;;;14.90;13.27;;;17.60;43.30;;;;;;5064823;28;20807;-74
2022/03/23 10:42:09;;;;;;;19.67;14.07;;;17.70;42.60;;;;;;5079682;28;20124;-74
2022/03/23 10:44:35;;;;;;;14.02;12.38;;;17.90;42.00;;;;;;5054250;28;20033;-73
2022/03/23 10:47:01;;;;;;;21.17;13.27;;;18.00;39.50;;;;;;5054103;28;20052;-74
2022/03/23 10:49:44;;;;;;;18.75;12.90;;;18.20;39.60;;;;;;5052313;28;20094;-74
2022/03/23 10:52:16;;;;;;;18.27;13.63;;;18.40;41.90;;;;;;5054705;28;20072;-74
2022/03/23 10:54:59;;;;;;;18.03;14.17;;;18.60;40.10;;;;;;5052921;28;20032;-74
2022/03/23 10:57:51;;;;;;;22.65;11.93;;;18.80;38.70;;;;;;5030414;28;20294;-74
2022/03/23 11:00:30;;;;;;;21.17;11.95;;;18.90;37.00;;;;;;5051075;28;20127;-74
2022/03/23 11:02:57;;;;;;;16.60;11.65;;;19.00;38.90;;;;;;5037440;28;20040;-74
2022/03/23 11:05:32;;;;;;;16.02;12.65;;;19.20;39.10;;;;;;5053124;28;20044;-74
2022/03/23 11:08:09;;;;;;;18.27;11.93;;;19.40;39.50;;;;;;5050305;28;20190;-74
2022/03/23 11:16:07;;;;;;;23.17;13.07;;;19.80;38.30;;;;;;5051222;28;20492;-74
2022/03/23 11:18:33;;;;;;;15.80;13.18;;;20.10;39.10;;;;;;5036130;28;20033;-74
2022/03/23 11:20:59;;;;;;;21.83;13.52;;;20.40;39.00;;;;;;5048255;28;20041;-73
2022/03/23 11:23:35;;;;;;;19.67;12.95;;;20.70;39.30;;;;;;5019763;28;20106;-74
2022/03/23 11:26:07;;;;;;;17.92;12.68;;;20.90;38.30;;;;;;5051075;28;20044;-74
2022/03/23 11:28:42;;;;;;;19.33;12.43;;;21.00;38.50;;;;;;5047102;28;20037;-75
2022/03/23 11:31:12;;;;;;;21.08;12.30;;;21.00;37.90;;;;;;5024561;28;20052;-76
2022/03/23 11:33:38;;;;;;;26.30;12.48;;;20.90;36.20;;;;;;5054687;28;20045;-78
2022/03/23 11:36:11;;;;;;;16.50;11.43;;;20.80;38.50;;;;;;5054445;28;20040;-77
2022/03/23 11:38:37;;;;;;;;;;;20.80;36.80;;;;;;5051844;28;20405;-77
2022/03/23 11:41:05;;;;;;;19.65;11.18;;;20.90;38.20;;;;;;5051451;28;19916;-77
2022/03/23 11:43:35;;;;;;;36.00;13.18;;;21.00;39.50;;;;;;5045251;28;20047;-77
2022/03/23 11:46:02;;;;;;;16.30;11.65;;;21.20;37.80;;;;;;5050034;28;20040;-77
2022/03/23 11:49:09;;;;;;;17.92;10.60;;;21.30;37.50;;;;;;5053299;28;20062;-78
2022/03/23 11:51:58;;;;;;;19.23;11.63;;;21.50;37.40;;;;;;5050470;28;20045;-77
2022/03/23 11:57:49;;;;;;;21.23;10.85;;;21.50;37.80;;;;;;5052858;28;20044;-77
2022/03/23 12:00:19;;;;;;;22.15;10.48;;;21.50;37.90;;;;;;5039390;28;20087;-77
2022/03/23 12:02:45;;;;;;;21.48;11.15;;;21.50;36.70;;;;;;5049115;28;20063;-76
2022/03/23 12:05:24;;;;;;;22.65;10.88;;;21.50;37.50;;;;;;5050337;28;20047;-77
2022/03/23 12:07:50;;;;;;;18.35;9.93;;;21.60;38.10;;;;;;5047253;28;20135;-77
2022/03/23 12:10:21;;;;;;;23.83;10.25;;;21.80;37.10;;;;;;5032322;28;20037;-77
2022/03/23 12:12:46;;;;;;;18.88;9.80;;;21.90;37.50;;;;;;5047959;28;20089;-77
2022/03/23 12:15:26;;;;;;;19.85;8.98;;;21.90;36.60;;;;;;5048689;28;20585;-77
2022/03/23 12:17:55;;;;;;;21.50;9.52;;;22.00;37.30;;;;;;5065028;28;20090;-76
2022/03/23 12:20:41;;;;;;;20.27;8.10;;;22.00;36.30;;;;;;5038183;28;20500;-76
2022/03/23 12:23:42;;;;;;;23.85;8.93;;;22.00;37.40;;;;;;5047186;28;20036;-75
2022/03/23 12:26:30;;;;;;;20.80;8.05;;;21.90;37.70;;;;;;5035806;28;20044;-76
2022/03/23 12:29:36;;;;;;;19.42;8.02;;;21.90;36.30;;;;;;5048609;28;20036;-77
2022/03/23 12:32:08;;;;;;;21.15;8.38;;;22.00;36.80;;;;;;5031639;28;20048;-77
2022/03/23 12:34:35;;;;;;;;;;;22.00;37.00;;;;;;5043535;28;20036;-77
2022/03/23 12:37:19;;;;;;;20.48;7.85;;;22.10;37.20;;;;;;5052534;28;19916;-75
2022/03/23 12:39:53;;;;;;;20.40;7.25;;;22.30;35.20;;;;;;5037851;28;20043;-77
2022/03/23 12:42:32;;;;;;;19.90;7.43;;;22.40;35.20;;;;;;5034762;28;20044;-76
2022/03/23 12:45:01;;;;;;;26.35;8.27;;;22.40;37.20;;;;;;5041100;28;20052;-76
2022/03/23 12:47:29;;;;;;;21.33;8.73;;;22.40;36.10;;;;;;5052208;28;20658;-75
2022/03/23 12:58:30;;;;;;;24.60;7.50;;;23.40;35.50;;;;;;5056173;28;20043;-75
2022/03/23 13:01:08;;;;;;;19.00;7.35;;;23.60;34.70;;;;;;5055684;28;20064;-76
2022/03/23 13:03:41;;;;;;;22.85;8.50;;;23.90;34.60;;;;;;5054370;28;20032;-75
2022/03/23 13:06:09;;;;;;;24.67;8.93;;;24.10;33.60;;;;;;5055277;28;20043;-75
2022/03/23 13:08:42;;;;;;;19.23;8.27;;;24.20;34.00;;;;;;5055968;28;20032;-77
2022/03/23 13:11:09;;;;;;;21.92;8.88;;;24.50;34.30;;;;;;5039062;28;20020;-76
2022/03/23 13:13:38;;;;;;;21.23;8.98;;;24.80;33.30;;;;;;5054107;28;20032;-76
2022/03/23 13:16:08;;;;;;;17.08;9.02;;;24.80;32.90;;;;;;5053996;28;20028;-75
2022/03/23 13:18:37;;;;;;;23.25;9.65;;;24.80;33.40;;;;;;5056318;28;20032;-76
2022/03/23 13:21:06;;;;;;;21.73;9.85;;;24.60;32.60;;;;;;5037326;28;20078;-76